NMSU Main Campus

2020-08-10 13:40:00

  • imperial
Date Time Air Temperature Relative Humidity Dewpoint Windchill Heat Index Wind Speed Wind Dir. Rain Solar Radiation Soil Temperature
2m 2m 3m 3m 10cm
US/Mountain F % F F F MPH deg in MJ/m^2 F
max avg avg
2020-08-09 13:50:00 95.5 21.5 50.0 95.5 95.5 4.0 5.5 3.3 50.3 82.8 0.00 0.2736611 93.8
2020-08-09 13:55:00 95.1 21.1 49.2 95.1 95.1 3.5 5.6 3.4 72.2 56.8 0.00 0.2724521 93.9
2020-08-09 14:00:00 95.3 24.3 53.2 95.3 95.3 3.5 6.5 3.1 38.0 37.0 0.00 0.2717837 94.0
2020-08-09 14:05:00 95.6 21.8 50.4 95.6 95.6 1.5 3.8 2.7 97.9 57.1 0.00 0.2708980 94.2
2020-08-09 14:10:00 97.0 20.1 49.4 97.0 97.0 5.8 5.8 2.1 97.1 69.4 0.00 0.2701417 94.3
2020-08-09 14:15:00 96.8 20.7 50.1 96.8 96.8 2.2 5.3 2.4 131.0 116.1 0.00 0.2690481 94.4
2020-08-09 14:20:00 96.9 21.6 51.3 96.9 96.9 1.5 6.0 3.5 90.7 148.0 0.00 0.2678888 94.5
2020-08-09 14:25:00 97.8 19.8 49.6 97.8 97.8 3.1 4.2 1.8 205.7 168.7 0.00 0.2667305 94.6
2020-08-09 14:30:00 97.1 19.2 48.3 97.1 97.1 0.0 4.7 2.9 105.6 144.7 0.00 0.2653839 94.6
2020-08-09 14:35:00 96.8 21.5 51.1 96.8 96.8 4.7 6.5 3.3 200.1 184.8 0.00 0.2638454 94.7
2020-08-09 14:40:00 96.9 21.0 50.5 96.9 96.9 0.0 7.2 3.0 109.1 205.9 0.00 0.2623866 94.8
2020-08-09 14:45:00 96.7 20.7 49.9 96.7 96.7 2.4 7.1 3.1 229.9 230.5 0.00 0.2613493 94.9
2020-08-09 14:50:00 96.0 21.7 50.7 96.0 96.0 4.0 7.1 4.7 296.0 262.3 0.00 0.2600606 95.0
2020-08-09 14:55:00 96.1 22.3 51.5 96.1 96.1 1.9 5.8 3.7 318.5 274.8 0.00 0.2585261 95.0
2020-08-09 15:00:00 97.1 26.2 56.7 97.1 97.1 0.0 6.9 2.8 332.5 233.1 0.00 0.2582136 95.1
2020-08-09 15:05:00 96.9 20.1 49.4 96.9 96.9 2.4 4.7 2.7 267.6 283.3 0.00 0.2593120 95.2
2020-08-09 15:10:00 97.1 20.2 49.7 97.1 97.1 1.5 5.1 2.3 120.1 28.7 0.00 0.2668097 95.3
2020-08-09 15:15:00 98.6 18.5 48.5 98.6 98.6 1.7 2.8 1.2 227.8 272.6 0.00 0.2549601 95.4
2020-08-09 15:20:00 99.8 17.4 47.8 99.8 99.8 5.6 5.6 1.0 191.4 188.5 0.00 0.2258402 95.5
2020-08-09 15:25:00 99.2 16.9 46.5 99.2 99.2 1.7 5.5 3.2 278.3 235.0 0.00 0.2711798 95.7
2020-08-09 15:30:00 99.2 18.2 48.5 99.2 99.2 1.9 4.6 3.0 250.4 221.6 0.00 0.2634853 95.7
2020-08-09 15:35:00 99.7 18.4 49.2 99.7 99.7 4.0 4.0 0.8 168.6 202.7 0.00 0.2549296 95.8
2020-08-09 15:40:00 98.7 18.8 49.1 98.7 98.7 6.7 6.7 4.5 216.0 204.6 0.00 0.2492920 96.0
2020-08-09 15:45:00 98.7 20.3 51.1 98.7 98.7 1.9 6.7 4.0 199.1 212.7 0.00 0.2485684 96.1
2020-08-09 15:50:00 99.4 17.2 47.3 99.4 99.4 3.8 5.3 2.5 182.4 206.3 0.00 0.2456464 96.2
2020-08-09 15:55:00 98.4 20.2 50.7 98.4 98.4 3.0 6.2 4.5 247.2 234.3 0.00 0.2364633 96.3
2020-08-09 16:00:00 99.0 17.4 47.2 99.0 99.0 2.8 6.3 2.8 81.7 163.2 0.00 0.2320544 96.4
2020-08-09 16:05:00 99.6 17.2 47.4 99.6 99.6 4.4 5.6 2.3 129.2 120.5 0.00 0.2338328 96.5
2020-08-09 16:10:00 99.3 17.7 48.0 99.3 99.3 4.2 4.7 3.1 230.2 196.6 0.00 0.2360482 96.6
2020-08-09 16:15:00 97.6 19.7 49.3 97.6 97.6 5.8 8.0 4.9 274.2 227.1 0.00 0.0717864 96.8
2020-08-09 16:20:00 95.3 22.7 51.3 95.3 95.3 6.2 8.5 5.0 290.3 215.6 0.00 0.0409093 96.9
2020-08-09 16:25:00 94.8 24.3 52.7 94.8 94.8 1.9 5.8 3.4 287.5 265.3 0.00 0.0421333 97.0
2020-08-09 16:30:00 94.4 24.5 52.7 94.4 94.4 1.0 5.5 2.7 168.5 249.1 0.00 0.0435644 97.1
2020-08-09 16:35:00 95.4 23.7 52.5 95.4 95.4 3.5 5.6 3.8 282.5 212.5 0.00 0.1758125 97.2
2020-08-09 16:40:00 96.1 21.1 49.9 96.1 96.1 4.7 7.4 4.7 322.1 261.6 0.00 0.1983440 97.3
2020-08-09 16:45:00 96.4 20.0 48.9 96.4 96.4 1.2 5.6 3.0 15.4 30.0 0.00 0.1832784 97.4
2020-08-09 16:50:00 97.6 19.9 49.7 97.6 97.6 0.0 4.4 1.6 248.7 238.2 0.00 0.1745436 97.5
2020-08-09 16:55:00 96.3 25.7 55.5 96.3 96.3 3.8 7.1 4.2 310.9 294.5 0.00 0.1710778 97.6
2020-08-09 17:00:00 96.3 18.8 47.1 96.3 96.3 6.3 6.3 4.0 25.7 321.1 0.00 0.1682195 97.7
2020-08-09 17:05:00 97.3 20.5 50.2 97.3 97.3 6.3 6.3 2.0 6.7 355.0 0.00 0.1644652 97.8
2020-08-09 17:10:00 97.1 19.4 48.6 97.1 97.1 2.8 6.0 2.9 273.1 310.3 0.00 0.1247463 97.8
2020-08-09 17:15:00 96.6 20.7 49.9 96.6 96.6 0.0 4.2 1.2 319.5 340.4 0.00 0.0238068 97.9
2020-08-09 17:20:00 95.8 20.4 48.8 95.8 95.8 3.5 3.5 1.0 295.3 264.4 0.00 0.0648997 97.9
2020-08-09 17:25:00 96.0 25.1 54.6 96.0 96.0 3.0 6.3 3.3 263.9 296.2 0.00 0.1319728 98.0
2020-08-09 17:30:00 96.4 18.3 46.5 96.4 96.4 0.0 4.9 2.5 285.6 279.3 0.00 0.1399053 98.0
2020-08-09 17:35:00 97.5 17.7 46.5 97.5 97.5 2.4 2.4 0.3 325.9 311.4 0.00 0.0804073 98.0
2020-08-09 17:40:00 97.1 21.7 51.5 97.1 97.1 0.0 5.5 2.4 310.8 329.1 0.00 0.1295118 98.1
2020-08-09 17:45:00 98.7 17.5 47.2 98.7 98.7 1.2 1.2 0.2 264.8 238.3 0.00 0.1222070 98.1
2020-08-09 17:50:00 97.8 18.4 47.7 97.8 97.8 2.2 6.0 3.4 221.8 257.6 0.00 0.1155436 98.2
2020-08-09 17:55:00 97.8 17.2 46.0 97.8 97.8 3.1 4.6 3.1 210.2 222.4 0.00 0.1104803 98.2
2020-08-09 18:00:00 97.1 18.6 47.4 97.1 97.1 0.0 4.7 1.9 288.1 285.2 0.00 0.1035645 98.2
2020-08-09 18:05:00 97.4 17.6 46.3 97.4 97.4 0.0 3.1 0.7 305.6 296.1 0.00 0.0944936 98.3
2020-08-09 18:10:00 98.8 16.5 45.7 98.8 98.8 1.3 1.3 0.1 282.4 294.5 0.00 0.0821850 98.3
2020-08-09 18:15:00 97.1 16.8 44.7 97.1 97.1 0.0 4.4 2.3 276.1 293.2 0.00 0.0627886 98.3
2020-08-09 18:20:00 97.7 15.9 43.8 97.7 97.7 1.9 3.5 1.5 240.8 214.5 0.00 0.0783198 98.3
2020-08-09 18:25:00 97.3 17.0 45.3 97.3 97.3 2.1 2.4 1.3 210.1 205.0 0.00 0.0154943 98.3
2020-08-09 18:30:00 96.7 19.9 48.9 96.7 96.7 0.0 2.6 0.6 207.8 200.4 0.00 0.0294289 98.3
2020-08-09 18:35:00 96.2 19.8 48.4 96.2 96.2 0.0 0.8 0.1 171.9 188.9 0.00 0.0140510 98.3
2020-08-09 18:40:00 95.6 19.2 47.1 95.6 95.6 0.0 1.9 0.2 164.0 176.4 0.00 0.0113111 98.3
2020-08-09 18:45:00 95.3 19.0 46.5 95.3 95.3 0.0 1.3 0.4 261.7 212.5 0.00 0.0094249 98.3
2020-08-09 18:50:00 94.8 22.5 50.7 94.8 94.8 0.0 0.0 0.0 261.5 0.0 0.00 0.0072642 98.3
2020-08-09 18:55:00 94.2 23.7 51.5 94.2 94.2 0.0 1.0 0.1 270.5 284.7 0.00 0.0062540 98.3
2020-08-09 19:00:00 93.8 20.7 47.6 93.8 93.8 1.0 1.0 0.1 207.5 205.0 0.00 0.0053661 98.3
2020-08-09 19:05:00 93.5 24.3 51.7 93.5 93.5 3.3 3.3 0.3 225.4 209.1 0.00 0.0045766 98.3
2020-08-09 19:10:00 92.8 27.5 54.4 92.8 92.8 1.7 3.5 1.6 197.9 204.0 0.00 0.0040476 98.2
2020-08-09 19:15:00 92.3 29.0 55.4 92.3 92.3 0.0 2.2 0.2 154.1 180.5 0.00 0.0038072 98.2
2020-08-09 19:20:00 91.7 30.2 56.1 91.7 91.7 0.0 0.0 0.0 157.2 0.0 0.00 0.0039378 98.2
2020-08-09 19:25:00 91.1 30.0 55.4 91.1 91.1 0.0 0.0 0.0 132.3 0.0 0.00 0.0043449 98.1
2020-08-09 19:30:00 90.8 30.9 56.0 90.8 90.8 0.8 1.2 0.2 295.1 286.4 0.00 0.0048603 98.1
2020-08-09 19:35:00 90.8 27.8 53.0 90.8 90.8 0.0 1.2 0.1 283.0 296.4 0.00 0.0062258 98.0
2020-08-09 19:40:00 91.1 32.2 57.4 91.1 91.1 0.0 0.0 0.0 276.6 0.0 0.00 0.0035310 97.9
2020-08-09 19:45:00 91.6 29.9 55.6 91.6 91.6 0.0 1.2 0.0 243.7 225.1 0.00 0.0019310 97.9
2020-08-09 19:50:00 91.1 25.0 50.4 91.1 91.1 8.5 13.9 5.6 313.2 281.5 0.00 0.0012473 97.8
2020-08-09 19:55:00 89.9 24.4 48.7 89.9 89.9 7.1 15.5 8.2 304.1 275.6 0.00 0.0008523 97.8
2020-08-09 20:00:00 89.8 24.1 48.4 89.8 89.8 8.1 11.5 8.8 290.5 296.8 0.00 0.0005856 97.7
2020-08-09 20:05:00 89.8 23.9 48.1 89.8 89.8 12.6 13.7 8.8 313.3 292.7 0.00 0.0004072 97.7
2020-08-09 20:10:00 89.5 24.1 48.1 89.5 89.5 8.8 16.7 9.1 313.7 310.2 0.00 0.0001926 97.6
2020-08-09 20:15:00 90.1 23.8 48.2 90.1 90.1 5.6 11.7 8.3 331.3 325.6 0.00 0.0001023 97.5
2020-08-09 20:20:00 90.0 23.5 47.8 90.0 90.0 5.8 9.7 6.5 6.5 329.3 0.00 0.0000140 97.4
2020-08-09 20:25:00 90.3 23.6 48.1 90.3 90.3 4.7 10.3 7.3 285.2 323.8 0.00 0.0000000 97.4
2020-08-09 20:30:00 90.5 23.2 47.9 90.5 90.5 5.6 9.0 7.1 316.6 332.0 0.00 0.0000000 97.3
2020-08-09 20:35:00 90.0 23.7 48.0 90.0 90.0 4.0 7.2 4.9 328.6 330.4 0.00 0.0000000 97.2
2020-08-09 20:40:00 89.7 23.9 48.0 89.7 89.7 3.5 8.1 4.6 333.9 336.9 0.00 0.0000000 97.1
2020-08-09 20:45:00 89.7 23.7 47.8 89.7 89.7 3.0 8.5 4.9 45.7 346.1 0.00 0.0000000 97.0
2020-08-09 20:50:00 89.4 23.8 47.6 89.4 89.4 6.7 8.3 5.1 335.4 348.5 0.00 0.0000000 96.9
2020-08-09 20:55:00 89.7 22.4 46.3 89.7 89.7 7.2 8.1 5.7 301.1 304.2 0.00 0.0000000 96.9
2020-08-09 21:00:00 89.4 21.9 45.4 89.4 89.4 4.4 7.6 4.9 329.1 302.0 0.00 0.0000000 96.7
2020-08-09 21:05:00 90.1 19.0 42.4 90.1 90.1 5.1 11.9 6.7 308.8 332.5 0.00 0.0000000 96.7
2020-08-09 21:10:00 90.2 18.7 42.0 90.2 90.2 12.4 16.7 9.1 331.2 333.1 0.00 0.0000000 96.5
2020-08-09 21:15:00 90.2 18.8 42.1 90.2 90.2 4.7 11.2 7.4 330.6 323.4 0.00 0.0000000 96.5
2020-08-09 21:20:00 90.3 18.6 42.0 90.3 90.3 4.7 9.7 6.8 336.0 332.5 0.00 0.0000000 96.3
2020-08-09 21:25:00 90.5 18.4 41.7 90.5 90.5 6.2 9.4 5.8 1.7 334.7 0.00 0.0000000 96.3
2020-08-09 21:30:00 90.4 18.5 41.9 90.4 90.4 4.4 11.2 4.9 20.2 359.6 0.00 0.0000000 96.1
2020-08-09 21:35:00 90.4 18.2 41.4 90.4 90.4 2.8 6.9 4.0 55.3 46.0 0.00 0.0000000 96.1
2020-08-09 21:40:00 90.4 18.8 42.2 90.4 90.4 2.1 4.4 2.2 69.0 66.1 0.00 0.0000000 96.0
2020-08-09 21:45:00 89.4 22.3 46.0 89.4 89.4 2.2 4.0 2.9 89.3 97.9 0.00 0.0000000 95.9
2020-08-09 21:50:00 88.8 21.2 44.1 88.8 88.8 1.5 2.1 1.4 68.8 69.6 0.00 0.0000000 95.8
2020-08-09 21:55:00 89.1 21.7 44.9 89.1 89.1 2.2 5.3 2.3 95.5 91.2 0.00 0.0000000 95.7
2020-08-09 22:00:00 89.0 22.4 45.7 89.0 89.0 1.2 2.8 1.9 94.3 79.9 0.00 0.0000000 95.6
2020-08-09 22:05:00 89.0 23.3 46.7 89.0 89.0 2.1 3.7 2.4 76.4 77.0 0.00 0.0000000 95.5
2020-08-09 22:10:00 88.6 24.0 47.2 88.6 88.6 3.5 4.2 2.5 61.1 69.7 0.00 0.0000000 95.4
2020-08-09 22:15:00 88.6 24.0 47.2 88.6 88.6 2.6 5.1 2.7 59.9 73.9 0.00 0.0000000 95.3
2020-08-09 22:20:00 88.4 24.1 47.1 88.4 88.4 1.3 3.3 2.2 52.2 85.6 0.00 0.0000000 95.3
2020-08-09 22:25:00 87.9 24.7 47.3 87.9 87.9 0.0 2.4 1.5 99.3 84.0 0.00 0.0000000 95.1
2020-08-09 22:30:00 87.7 24.6 47.1 87.7 87.7 1.0 2.8 1.5 163.9 111.1 0.00 0.0000000 95.1
2020-08-09 22:35:00 87.0 26.1 48.1 87.0 87.0 1.5 2.8 2.2 200.6 193.6 0.00 0.0000000 94.9
2020-08-09 22:40:00 86.1 26.5 47.6 86.1 86.1 0.8 1.7 1.0 252.2 218.3 0.00 0.0000000 94.9
2020-08-09 22:45:00 85.4 29.3 49.8 85.4 85.4 0.0 1.3 0.2 204.6 251.9 0.00 0.0000000 94.8
2020-08-09 22:50:00 84.7 28.0 47.9 84.7 84.7 0.0 1.2 0.3 291.3 219.0 0.00 0.0000000 94.7
2020-08-09 22:55:00 84.4 29.8 49.4 84.4 84.4 1.5 1.7 0.4 166.2 172.3 0.00 0.0000000 94.6
2020-08-09 23:00:00 83.4 34.6 52.5 83.4 83.4 5.1 5.1 3.2 301.9 212.6 0.00 0.0000000 94.5
2020-08-09 23:05:00 82.1 34.5 51.4 82.1 82.1 2.2 5.1 3.3 191.7 246.2 0.00 0.0000000 94.4
2020-08-09 23:10:00 82.0 35.0 51.7 82.0 82.0 1.9 2.6 1.1 201.0 244.5 0.00 0.0000000 94.3
2020-08-09 23:15:00 82.6 34.7 51.9 82.6 82.6 2.8 4.0 3.0 115.9 159.5 0.00 0.0000000 94.2
2020-08-09 23:20:00 82.6 34.7 51.9 82.6 82.6 1.7 2.2 1.3 187.5 165.5 0.00 0.0000000 94.2
2020-08-09 23:25:00 82.4 34.0 51.2 82.4 82.4 1.9 2.2 1.5 204.6 174.6 0.00 0.0000000 94.1
2020-08-09 23:30:00 82.3 33.9 51.0 82.3 82.3 2.8 3.5 1.5 230.2 172.6 0.00 0.0000000 94.0
2020-08-09 23:35:00 82.6 33.9 51.3 82.6 82.6 1.7 3.1 1.4 254.6 168.6 0.00 0.0000000 93.9
2020-08-09 23:40:00 82.7 33.9 51.4 82.7 82.7 0.0 2.1 1.2 55.5 181.9 0.00 0.0000000 93.8
2020-08-09 23:45:00 82.5 34.2 51.4 82.5 82.5 0.0 0.0 0.0 165.8 0.0 0.00 0.0000000 93.8
2020-08-09 23:50:00 82.4 34.6 51.7 82.4 82.4 0.8 0.8 0.1 167.1 153.5 0.00 0.0000000 93.7
2020-08-09 23:55:00 83.0 29.8 48.2 83.0 83.0 3.3 3.3 1.9 96.7 122.6 0.00 0.0000000 93.6
2020-08-10 00:00:00 84.8 28.8 48.8 84.8 84.8 2.1 3.5 2.3 143.1 143.2 0.00 0.0000000 93.5
2020-08-10 00:05:00 84.5 31.8 51.2 84.5 84.5 2.1 2.8 2.4 216.0 181.3 0.00 0.0000000 93.4
2020-08-10 00:10:00 84.0 33.3 52.1 84.0 84.0 1.3 2.1 0.9 222.1 199.1 0.00 0.0000000 93.3
2020-08-10 00:15:00 83.4 34.6 52.6 83.4 83.4 1.3 2.4 1.7 234.6 231.4 0.00 0.0000000 93.3
2020-08-10 00:20:00 83.0 34.3 52.1 83.0 83.0 3.0 3.5 2.5 295.6 294.4 0.00 0.0000000 93.2
2020-08-10 00:25:00 83.1 30.5 48.9 83.1 83.1 7.2 8.7 4.9 289.8 285.5 0.00 0.0000000 93.1
2020-08-10 00:30:00 84.3 31.6 50.9 84.3 84.3 4.4 6.5 4.1 126.5 214.3 0.00 0.0000000 93.1
2020-08-10 00:35:00 86.6 29.3 50.9 86.6 86.6 7.4 8.0 5.1 17.0 71.2 0.00 0.0000000 93.0
2020-08-10 00:40:00 89.2 19.3 42.0 89.2 89.2 11.5 16.4 10.9 326.9 344.9 0.00 0.0000000 92.9
2020-08-10 00:45:00 91.5 18.0 42.1 91.5 91.5 9.0 14.6 8.0 57.1 50.1 0.00 0.0000000 92.9
2020-08-10 00:50:00 92.8 16.0 40.0 92.8 92.8 4.6 14.7 7.1 125.3 88.7 0.00 0.0000000 92.8
2020-08-10 00:55:00 92.0 17.9 42.2 92.0 92.0 5.6 10.5 5.6 43.0 39.6 0.00 0.0000000 92.7
2020-08-10 01:00:00 93.4 15.6 39.8 93.4 93.4 1.0 10.6 6.3 74.7 27.8 0.00 0.0000000 92.7
2020-08-10 01:05:00 93.7 14.7 38.6 93.7 93.7 7.1 16.4 5.3 15.9 33.1 0.00 0.0000000 92.6
2020-08-10 01:10:00 93.8 14.0 37.4 93.8 93.8 8.3 14.0 8.7 32.7 34.8 0.00 0.0000000 92.5
2020-08-10 01:15:00 93.6 15.2 39.4 93.6 93.6 4.4 10.8 5.2 109.9 106.2 0.00 0.0000000 92.5
2020-08-10 01:20:00 93.9 15.5 40.1 93.9 93.9 4.6 12.2 5.3 297.5 53.6 0.00 0.0000000 92.4
2020-08-10 01:25:00 93.7 16.1 40.9 93.7 93.7 4.4 5.8 2.8 197.2 217.3 0.00 0.0000000 92.3
2020-08-10 01:30:00 91.4 21.7 46.9 91.4 91.4 2.4 6.0 3.4 135.1 157.4 0.00 0.0000000 92.2
2020-08-10 01:35:00 90.4 23.3 47.8 90.4 90.4 2.1 3.8 2.4 175.8 154.7 0.00 0.0000000 92.2
2020-08-10 01:40:00 88.5 26.0 49.3 88.5 88.5 1.9 5.3 3.1 131.7 173.8 0.00 0.0000000 92.1
2020-08-10 01:45:00 86.4 31.8 52.9 86.4 86.4 1.5 4.9 2.1 196.9 178.2 0.00 0.0000000 92.0
2020-08-10 01:50:00 84.5 34.2 53.2 84.5 84.5 1.3 3.8 1.8 321.9 183.5 0.00 0.0000000 92.0
2020-08-10 01:55:00 83.3 35.3 53.0 83.3 83.3 0.0 1.9 1.0 274.9 345.0 0.00 0.0000000 91.9
2020-08-10 02:00:00 82.7 35.1 52.3 82.7 82.7 2.2 3.0 2.0 208.2 239.0 0.00 0.0000000 91.9
2020-08-10 02:05:00 82.3 36.5 53.1 82.3 82.3 2.8 2.8 1.9 227.6 223.0 0.00 0.0000000 91.8
2020-08-10 02:10:00 81.6 37.4 53.1 81.6 81.6 1.2 3.7 2.2 112.4 154.4 0.00 0.0000000 91.7
2020-08-10 02:15:00 81.7 38.3 53.9 81.7 81.7 3.7 3.7 0.7 217.3 152.1 0.00 0.0000000 91.7
2020-08-10 02:20:00 81.4 36.8 52.5 81.4 81.4 1.5 3.3 1.6 111.9 122.2 0.00 0.0000000 91.6
2020-08-10 02:25:00 81.4 34.4 50.6 81.4 81.4 0.0 1.3 0.4 160.0 170.1 0.00 0.0000000 91.6
2020-08-10 02:30:00 81.7 32.9 49.7 81.7 81.7 1.7 2.2 0.8 232.9 159.0 0.00 0.0000000 91.5
2020-08-10 02:35:00 81.8 35.0 51.5 81.8 81.8 3.1 3.3 1.8 294.2 269.5 0.00 0.0000000 91.5
2020-08-10 02:40:00 81.2 33.4 49.7 81.2 81.2 3.8 8.7 4.2 306.7 318.4 0.00 0.0000000 91.4
2020-08-10 02:45:00 81.9 30.7 48.0 81.9 81.9 4.0 7.4 5.1 313.5 312.1 0.00 0.0000000 91.4
2020-08-10 02:50:00 81.8 30.5 47.8 81.8 81.8 2.6 5.5 3.2 36.4 351.7 0.00 0.0000000 91.3
2020-08-10 02:55:00 82.0 30.0 47.5 82.0 82.0 0.0 3.7 1.4 315.0 357.5 0.00 0.0000000 91.3
2020-08-10 03:00:00 81.7 30.6 47.8 81.7 81.7 0.8 0.8 0.1 36.0 343.3 0.00 0.0000000 91.3
2020-08-10 03:05:00 81.7 32.2 49.1 81.7 81.7 2.1 2.4 1.9 316.3 340.8 0.00 0.0000000 91.2
2020-08-10 03:10:00 81.3 31.7 48.3 81.3 81.3 1.7 3.0 2.1 257.0 295.2 0.00 0.0000000 91.1
2020-08-10 03:15:00 80.9 31.5 47.8 80.9 80.9 1.9 2.1 0.9 241.5 247.7 0.00 0.0000000 91.1
2020-08-10 03:20:00 80.6 35.4 50.8 80.6 80.6 0.0 1.7 0.5 63.4 249.4 0.00 0.0000000 91.1
2020-08-10 03:25:00 80.1 35.0 50.0 80.1 80.1 0.0 1.0 0.1 64.4 55.4 0.00 0.0000000 91.0
2020-08-10 03:30:00 79.3 34.8 49.2 79.3 79.3 1.3 1.3 0.6 233.8 271.4 0.00 0.0000000 90.9
2020-08-10 03:35:00 79.5 34.2 48.8 79.5 79.5 0.0 2.4 1.4 215.4 226.7 0.00 0.0000000 90.9
2020-08-10 03:40:00 79.3 34.9 49.2 79.3 79.3 1.0 2.4 1.3 337.6 310.3 0.00 0.0000000 90.8
2020-08-10 03:45:00 78.9 35.2 49.1 78.9 78.9 1.5 2.8 1.6 321.9 334.3 0.00 0.0000000 90.7
2020-08-10 03:50:00 78.2 35.5 48.8 78.2 78.2 1.7 1.7 0.8 103.2 347.9 0.00 0.0000000 90.7
2020-08-10 03:55:00 78.2 37.6 50.3 78.2 78.2 0.0 1.7 0.8 241.9 104.0 0.00 0.0000000 90.6
2020-08-10 04:00:00 78.2 38.7 51.0 78.2 78.2 0.0 0.0 0.0 130.4 0.0 0.00 0.0000000 90.6
2020-08-10 04:05:00 77.6 40.5 51.7 77.6 77.6 1.0 2.4 1.5 120.4 110.1 0.00 0.0000000 90.5
2020-08-10 04:10:00 77.5 38.9 50.5 77.5 77.5 0.0 3.1 1.6 67.0 103.2 0.00 0.0000000 90.4
2020-08-10 04:15:00 77.8 37.4 49.7 77.8 77.8 2.6 3.1 1.4 102.8 99.7 0.00 0.0000000 90.4
2020-08-10 04:20:00 78.5 36.2 49.4 78.5 78.5 0.8 3.1 1.2 78.4 94.6 0.00 0.0000000 90.3
2020-08-10 04:25:00 78.9 37.0 50.5 78.9 78.9 1.2 1.5 0.9 83.3 82.1 0.00 0.0000000 90.3
2020-08-10 04:30:00 78.7 37.9 50.9 78.7 78.7 1.0 2.4 1.5 70.4 94.0 0.00 0.0000000 90.2
2020-08-10 04:35:00 78.7 38.7 51.4 78.7 78.7 2.8 3.1 1.9 116.8 106.7 0.00 0.0000000 90.2
2020-08-10 04:40:00 78.6 41.3 53.2 78.6 78.6 2.4 3.3 2.1 210.7 185.8 0.00 0.0000000 90.1
2020-08-10 04:45:00 77.6 43.2 53.5 77.6 77.6 2.1 2.8 1.9 140.9 188.6 0.00 0.0000000 90.1
2020-08-10 04:50:00 77.5 42.1 52.6 77.5 77.5 1.0 2.1 0.5 230.3 182.1 0.00 0.0000000 90.0
2020-08-10 04:55:00 77.1 44.1 53.6 77.1 77.1 3.0 3.5 2.3 230.7 220.6 0.00 0.0000000 89.9
2020-08-10 05:00:00 76.9 43.6 53.1 76.9 76.9 1.7 3.3 2.3 224.0 225.9 0.00 0.0000000 89.9
2020-08-10 05:05:00 76.5 44.7 53.4 76.5 76.5 1.3 3.3 2.2 225.1 253.7 0.00 0.0000000 89.8
2020-08-10 05:10:00 76.2 45.0 53.4 76.2 76.2 0.0 2.2 0.6 155.7 216.5 0.00 0.0000000 89.7
2020-08-10 05:15:00 75.7 45.3 53.0 75.7 75.7 0.0 1.3 0.4 244.2 213.6 0.00 0.0000000 89.7
2020-08-10 05:20:00 75.3 44.6 52.2 75.3 75.3 3.5 3.5 1.5 301.1 283.5 0.00 0.0000000 89.6
2020-08-10 05:25:00 74.5 45.9 52.3 74.5 74.5 1.2 3.7 2.8 280.8 295.8 0.00 0.0000000 89.5
2020-08-10 05:30:00 74.5 46.3 52.5 74.5 74.5 1.5 3.3 2.2 307.7 295.8 0.00 0.0000000 89.5
2020-08-10 05:35:00 74.5 46.2 52.5 74.5 74.5 0.0 1.9 0.5 170.3 312.6 0.00 0.0000000 89.4
2020-08-10 05:40:00 74.4 45.3 51.9 74.4 74.4 1.5 1.5 0.4 254.3 253.3 0.00 0.0000000 89.4
2020-08-10 05:45:00 74.6 45.4 52.1 74.6 74.6 0.0 1.7 0.5 38.6 282.9 0.00 0.0000000 89.3
2020-08-10 05:50:00 74.2 48.3 53.4 74.2 74.2 0.0 1.0 0.2 188.5 184.8 0.00 0.0000000 89.2
2020-08-10 05:55:00 73.7 48.2 52.9 73.7 73.7 1.7 2.8 1.2 256.0 287.3 0.00 0.0000000 89.2
2020-08-10 06:00:00 73.4 46.9 51.9 73.4 73.4 1.0 1.9 1.3 266.7 269.3 0.00 0.0000000 89.1
2020-08-10 06:05:00 73.5 46.5 51.8 73.5 73.5 0.0 1.7 0.3 291.5 285.7 0.00 0.0000000 89.1
2020-08-10 06:10:00 73.2 46.6 51.6 73.2 73.2 0.0 0.0 0.0 307.3 0.0 0.00 0.0000261 89.0
2020-08-10 06:15:00 72.9 48.5 52.3 72.9 72.9 0.0 0.0 0.0 335.1 0.0 0.00 0.0001265 89.0
2020-08-10 06:20:00 72.9 44.7 50.1 72.9 72.9 0.0 1.0 0.0 103.8 33.7 0.00 0.0003193 88.9
2020-08-10 06:25:00 72.6 49.9 52.9 72.6 72.6 1.7 1.7 0.3 173.2 182.6 0.00 0.0005744 88.8
2020-08-10 06:30:00 72.6 49.9 52.9 72.6 72.6 0.0 2.8 1.4 228.1 176.3 0.00 0.0010624 88.8
2020-08-10 06:35:00 72.2 51.5 53.3 72.2 72.2 0.0 1.5 0.5 129.7 139.8 0.00 0.0017332 88.7
2020-08-10 06:40:00 72.0 51.0 52.9 72.0 72.0 0.0 0.8 0.0 256.2 259.3 0.00 0.0024321 88.6
2020-08-10 06:45:00 71.9 53.4 54.0 71.9 71.9 0.0 0.0 0.0 143.9 0.0 0.00 0.0031571 88.6
2020-08-10 06:50:00 72.1 49.7 52.3 72.1 72.1 0.0 0.0 0.0 64.0 0.0 0.00 0.0039082 88.5
2020-08-10 06:55:00 72.5 48.8 52.2 72.5 72.5 0.0 1.5 0.2 130.3 45.1 0.00 0.0050289 88.5
2020-08-10 07:00:00 72.6 49.3 52.5 72.6 72.6 0.0 0.0 0.0 130.3 0.0 0.00 0.0068686 88.4
2020-08-10 07:05:00 72.9 48.9 52.6 72.9 72.9 1.2 1.7 0.7 192.6 201.5 0.00 0.0065897 88.3
2020-08-10 07:10:00 73.2 48.1 52.4 73.2 73.2 1.7 2.4 1.7 138.8 172.2 0.00 0.0068950 88.3
2020-08-10 07:15:00 73.9 47.2 52.5 73.9 73.9 0.0 1.7 0.7 159.6 158.1 0.00 0.0076621 88.2
2020-08-10 07:20:00 74.1 46.9 52.5 74.1 74.1 0.0 1.0 0.2 79.0 42.5 0.00 0.0078088 88.2
2020-08-10 07:25:00 74.6 47.4 53.3 74.6 74.6 0.0 0.8 0.1 53.5 70.8 0.00 0.0078468 88.1
2020-08-10 07:30:00 74.8 48.8 54.2 74.8 74.8 0.0 0.0 0.0 37.4 0.0 0.00 0.0082484 88.1
2020-08-10 07:35:00 75.3 48.2 54.4 75.3 75.3 0.8 1.3 0.4 197.9 257.0 0.00 0.0089895 88.0
2020-08-10 07:40:00 75.7 44.2 52.3 75.7 75.7 0.0 0.0 0.0 266.7 0.0 0.00 0.0099897 87.9
2020-08-10 07:45:00 76.0 41.9 51.2 76.0 76.0 1.3 1.9 0.7 323.5 327.9 0.00 0.0114096 87.9
2020-08-10 07:50:00 76.6 42.0 51.8 76.6 76.6 1.9 2.1 1.6 326.7 326.6 0.00 0.0419389 87.9
2020-08-10 07:55:00 77.1 46.0 54.8 77.1 77.1 1.9 1.9 1.0 313.7 311.8 0.00 0.0480079 87.8
2020-08-10 08:00:00 77.4 44.3 53.9 77.4 77.4 0.0 1.9 0.5 286.1 300.5 0.00 0.0689750 87.7
2020-08-10 08:05:00 78.8 38.8 51.6 78.8 78.8 1.7 1.9 1.0 40.9 360.0 0.00 0.0743680 87.7
2020-08-10 08:10:00 79.7 40.3 53.4 79.7 79.7 1.2 2.1 1.3 182.7 141.5 0.00 0.0795772 87.7
2020-08-10 08:15:00 80.5 39.3 53.4 80.5 80.5 1.2 1.9 1.1 179.1 172.3 0.00 0.0847065 87.6
2020-08-10 08:20:00 80.5 39.8 53.8 80.5 80.5 2.2 2.4 2.0 202.4 173.4 0.00 0.0898765 87.6
2020-08-10 08:25:00 80.8 38.9 53.5 80.8 80.8 2.2 3.8 2.6 210.5 203.2 0.00 0.0950767 87.5
2020-08-10 08:30:00 81.1 40.4 54.7 81.1 80.7 2.8 4.0 1.7 236.4 220.3 0.00 0.1001949 87.5
2020-08-10 08:35:00 81.0 41.5 55.4 81.0 80.8 1.9 4.2 3.0 186.4 209.2 0.00 0.1054955 87.4
2020-08-10 08:40:00 81.0 40.5 54.7 81.0 80.7 2.6 3.5 2.7 207.4 208.9 0.00 0.1108037 87.4
2020-08-10 08:45:00 81.1 41.9 55.7 81.1 80.9 3.1 4.7 3.2 217.3 200.3 0.00 0.1159282 87.4
2020-08-10 08:50:00 81.0 43.6 56.8 81.0 81.0 1.3 3.7 2.7 141.0 204.3 0.00 0.1210865 87.4
2020-08-10 08:55:00 81.1 44.3 57.3 81.1 81.2 0.8 4.2 2.8 240.1 198.1 0.00 0.1261552 87.3
2020-08-10 09:00:00 81.6 40.7 55.5 81.6 81.2 1.9 3.5 2.0 234.0 214.1 0.00 0.1310379 87.3
2020-08-10 09:05:00 81.8 42.9 57.0 81.8 81.6 2.2 4.0 2.3 210.7 222.5 0.00 0.1357907 87.3
2020-08-10 09:10:00 82.5 40.2 55.9 82.5 81.9 1.0 2.4 1.4 208.2 182.4 0.00 0.1406796 87.2
2020-08-10 09:15:00 83.3 38.4 55.3 83.3 83.3 0.0 2.8 1.4 303.4 209.2 0.00 0.1454595 87.2
2020-08-10 09:20:00 83.2 39.7 56.2 83.2 83.2 2.4 3.3 1.9 143.8 165.6 0.00 0.1392142 87.2
2020-08-10 09:25:00 83.7 38.6 55.9 83.7 83.7 0.0 3.1 0.8 338.4 175.7 0.00 0.1495054 87.2
2020-08-10 09:30:00 84.6 37.5 55.8 84.6 84.6 1.9 2.2 1.5 173.9 178.3 0.00 0.1597026 87.2
2020-08-10 09:35:00 84.5 36.8 55.3 84.5 84.5 3.0 3.7 2.1 244.9 200.4 0.00 0.1642020 87.3
2020-08-10 09:40:00 84.7 39.2 57.1 84.7 84.7 1.7 2.6 0.9 313.8 266.5 0.00 0.1689380 87.3
2020-08-10 09:45:00 84.8 37.5 56.0 84.8 84.8 3.1 3.1 2.3 293.6 296.3 0.00 0.1734875 87.3
2020-08-10 09:50:00 85.4 36.7 56.0 85.4 85.4 2.4 3.5 1.3 200.9 303.1 0.00 0.1780157 87.4
2020-08-10 09:55:00 86.2 34.9 55.2 86.2 86.2 3.1 3.1 1.8 187.9 188.0 0.00 0.1826916 87.4
2020-08-10 10:00:00 86.0 35.6 55.6 86.0 86.0 2.2 3.5 2.7 212.1 191.6 0.00 0.1868661 87.5
2020-08-10 10:05:00 86.4 34.6 55.2 86.4 86.4 1.3 3.3 1.2 237.4 217.9 0.00 0.1907761 87.5
2020-08-10 10:10:00 86.6 33.5 54.5 86.6 86.6 2.8 3.7 2.7 280.0 221.4 0.00 0.1950454 87.6
2020-08-10 10:15:00 87.2 35.7 56.7 87.2 87.2 1.2 3.3 2.1 246.8 193.1 0.00 0.1991071 87.7
2020-08-10 10:20:00 88.0 32.7 55.1 88.0 88.0 0.8 4.6 2.0 146.3 201.4 0.00 0.2036750 87.8
2020-08-10 10:25:00 88.8 32.5 55.6 88.8 88.8 2.6 3.1 2.0 223.3 227.3 0.00 0.2076310 87.9
2020-08-10 10:30:00 88.9 30.6 54.0 88.9 88.9 1.3 4.0 1.5 130.8 139.7 0.00 0.2114816 88.0
2020-08-10 10:35:00 88.9 31.1 54.5 88.9 88.9 2.2 4.0 2.7 153.7 131.1 0.00 0.2149593 88.1
2020-08-10 10:40:00 89.1 32.6 55.9 89.1 89.1 0.8 3.5 1.9 235.1 167.4 0.00 0.2182570 88.2
2020-08-10 10:45:00 89.8 32.0 56.0 89.8 89.8 2.6 3.5 2.1 209.3 195.1 0.00 0.2221089 88.3
2020-08-10 10:50:00 90.6 29.5 54.4 90.6 90.6 2.8 3.3 2.2 155.1 168.9 0.00 0.2256629 88.4
2020-08-10 10:55:00 90.5 31.6 56.3 90.5 90.5 0.0 4.0 2.2 170.8 200.3 0.00 0.2288790 88.5
2020-08-10 11:00:00 90.9 31.0 56.1 90.9 90.9 3.0 4.9 2.4 246.4 169.6 0.00 0.2324888 88.7
2020-08-10 11:05:00 90.4 33.7 58.0 90.4 90.4 3.0 4.6 3.1 235.9 248.2 0.00 0.2354139 88.8
2020-08-10 11:10:00 90.5 30.0 54.9 90.5 90.5 1.3 4.6 2.8 167.5 176.6 0.00 0.2383255 89.0
2020-08-10 11:15:00 90.8 30.6 55.6 90.8 90.8 1.3 4.6 3.0 176.4 159.7 0.00 0.2414918 89.1
2020-08-10 11:20:00 90.4 30.6 55.3 90.4 90.4 3.7 6.0 3.5 255.6 206.2 0.00 0.2441933 89.2
2020-08-10 11:25:00 91.8 29.4 55.4 91.8 91.8 1.2 3.3 1.7 178.8 160.7 0.00 0.2466625 89.4
2020-08-10 11:30:00 93.1 29.8 56.9 93.1 93.1 3.1 4.6 1.9 224.9 152.0 0.00 0.2497313 89.6
2020-08-10 11:35:00 92.5 28.1 54.8 92.5 92.5 1.3 4.7 3.1 129.2 108.4 0.00 0.2517724 89.7
2020-08-10 11:40:00 93.1 31.8 58.7 93.1 93.1 1.5 3.5 2.1 0.0 168.6 0.00 0.2539963 89.9
2020-08-10 11:45:00 93.4 26.2 53.6 93.4 93.4 3.1 4.6 2.7 165.1 163.7 0.00 0.2563139 90.0
2020-08-10 11:50:00 92.9 27.7 54.7 92.9 92.9 4.6 5.5 3.9 207.7 217.2 0.00 0.2583685 90.2
2020-08-10 11:55:00 93.2 25.9 53.1 93.2 93.2 4.6 4.7 2.7 100.8 185.2 0.00 0.2602444 90.4
2020-08-10 12:00:00 93.4 24.7 52.1 93.4 93.4 2.1 6.2 3.1 195.9 153.9 0.00 0.2620425 90.6
2020-08-10 12:05:00 93.5 27.2 54.7 93.5 93.5 1.9 3.7 2.4 248.9 236.7 0.00 0.2641082 90.7
2020-08-10 12:10:00 95.0 22.9 51.2 95.0 95.0 4.0 4.7 2.8 102.2 159.3 0.00 0.2663152 90.9
2020-08-10 12:15:00 95.5 21.1 49.5 95.5 95.5 2.8 4.0 2.3 200.8 194.4 0.00 0.2682804 91.1
2020-08-10 12:20:00 95.6 20.8 49.2 95.6 95.6 2.8 2.8 1.8 21.6 316.0 0.00 0.2696759 91.3
2020-08-10 12:25:00 96.5 23.0 52.7 96.5 96.5 2.6 3.1 1.6 233.4 320.1 0.00 0.2703503 91.5
2020-08-10 12:30:00 96.0 21.0 49.8 96.0 96.0 2.6 4.9 3.5 106.1 149.4 0.00 0.2717048 91.7
2020-08-10 12:35:00 95.5 20.7 49.0 95.5 95.5 2.1 4.4 3.6 134.0 137.7 0.00 0.2721897 91.8
2020-08-10 12:40:00 96.1 20.4 49.1 96.1 96.1 2.4 4.0 2.4 175.5 56.9 0.00 0.2729490 92.0
2020-08-10 12:45:00 96.2 20.8 49.7 96.2 96.2 1.0 6.0 2.8 223.1 238.6 0.00 0.2745169 92.2
2020-08-10 12:50:00 97.0 20.9 50.5 97.0 97.0 4.4 4.4 2.9 223.6 189.1 0.00 0.2756830 92.4
2020-08-10 12:55:00 97.0 20.2 49.6 97.0 97.0 2.2 4.6 2.9 70.9 147.8 0.00 0.2754710 92.6
2020-08-10 13:00:00 97.1 19.4 48.6 97.1 97.1 3.8 6.3 3.6 121.9 116.6 0.00 0.2759331 92.8
2020-08-10 13:05:00 97.2 20.0 49.5 97.2 97.2 3.0 3.7 2.7 321.1 129.4 0.00 0.2759427 93.0
2020-08-10 13:10:00 96.7 19.7 48.7 96.7 96.7 3.7 5.3 3.8 241.7 234.0 0.00 0.2763911 93.1
2020-08-10 13:15:00 97.7 20.3 50.3 97.7 97.7 3.5 4.6 2.1 236.4 214.0 0.00 0.2765920 93.3
2020-08-10 13:20:00 96.8 20.5 49.7 96.8 96.8 3.5 6.3 4.4 192.6 207.0 0.00 0.2761867 93.5
2020-08-10 13:25:00 97.1 21.9 51.8 97.1 97.1 3.3 5.5 4.2 159.4 205.0 0.00 0.2760822 93.7
2020-08-10 13:30:00 96.9 19.7 48.8 96.9 96.9 1.3 6.3 3.7 222.2 219.5 0.00 0.2761193 93.9
2020-08-10 13:35:00 98.3 18.5 48.2 98.3 98.3 7.1 7.1 3.7 201.3 194.5 0.00 0.2769416 94.1
2020-08-10 13:40:00 98.4 19.7 50.0 98.4 98.4 5.1 8.5 3.6 222.2 206.1 0.00 0.2762758 94.3

Data is courtesy of the NM Climate Center. DO NOT USE IN LEGAL PROCEEDINGS.